Pagina principale
METAR-TAF:

METAR-TAF

Aeroporti :

Aeroporto di Alghero-Fertilia

Alghero, Italia

latitudine: 40-38N, longitudine: 008-17E, altezza: 23 m

Osservazione

Il bollettino è stato emesso 22 minuti fa, alle 17:20 UTC
Vento 10 kt da nord-est
Temperature 23°C
Umidità 47%
Pressione 1014 hPa
Visibilità 10 km o più
nessuna nube inferiore a 1500 m e nessun cumulonembo

METAR: LIEA 311720Z 04010KT CAVOK 23/11 Q1014

Ora: 19:42 (17:42 UTC)

Previsione

Il bollettino è stato emesso 42 minuti fa, alle 17:00 UTC
Previsione valida dal 31 alle 18 UTC al 01 alle 18 UTC
Vento 8 kt da nord-est
Visibilità 10 km o più
Poco nuvoloso ad un'altezza di 3000 ft

TAF: LIEA 311700Z 3118/0118 04008KT 9999 FEW030

Osservazioni e previsioni meteorologiche di più di 4000 aeroporti (messaggi METAR e TAF).

Le stazioni disponibili sono rappresentate dai dischi gialli e rossi sulla carta.

Puntare il mouse per vedere il nome della stazione.

Clicca sopra per visualizzare le osservazioni e previsioni meteorologiche.

Per cambiare la mappa : fare clic sui pulsanti verdi con una croce nera per ingrandire, il pulsante verde con un trattino per diminuire, o sulla freccia verde per le mappe adiacenti.


METAR-TAF: